sensor_id;sensor_type;location;lat;lon;timestamp;P1;durP1;ratioP1;P2;durP2;ratioP2
49764;SDS011;35657;51.204;-4.130;2023-06-10T00:00:45;18.77;;;8.27;;
49764;SDS011;35657;51.204;-4.130;2023-06-10T00:03:11;21.63;;;7.45;;
49764;SDS011;35657;51.204;-4.130;2023-06-10T00:05:37;14.68;;;8.27;;
49764;SDS011;35657;51.204;-4.130;2023-06-10T00:08:04;14.77;;;8.15;;
49764;SDS011;35657;51.204;-4.130;2023-06-10T00:10:36;15.63;;;7.95;;
49764;SDS011;35657;51.204;-4.130;2023-06-10T00:13:06;13.75;;;7.72;;
49764;SDS011;35657;51.204;-4.130;2023-06-10T00:15:36;15.52;;;7.15;;
49764;SDS011;35657;51.204;-4.130;2023-06-10T00:18:02;12.70;;;7.20;;
49764;SDS011;35657;51.204;-4.130;2023-06-10T00:20:29;13.73;;;7.30;;
49764;SDS011;35657;51.204;-4.130;2023-06-10T00:22:55;19.58;;;7.22;;
49764;SDS011;35657;51.204;-4.130;2023-06-10T00:25:24;17.52;;;7.53;;
49764;SDS011;35657;51.204;-4.130;2023-06-10T00:27:51;16.88;;;7.93;;
49764;SDS011;35657;51.204;-4.130;2023-06-10T00:30:16;14.07;;;7.75;;
49764;SDS011;35657;51.204;-4.130;2023-06-10T00:32:42;19.20;;;8.48;;
49764;SDS011;35657;51.204;-4.130;2023-06-10T00:35:08;17.40;;;7.45;;
49764;SDS011;35657;51.204;-4.130;2023-06-10T00:37:34;17.38;;;7.97;;
49764;SDS011;35657;51.204;-4.130;2023-06-10T00:40:01;18.40;;;7.53;;
49764;SDS011;35657;51.204;-4.130;2023-06-10T00:42:27;18.30;;;8.52;;
49764;SDS011;35657;51.204;-4.130;2023-06-10T00:44:54;18.75;;;8.23;;
49764;SDS011;35657;51.204;-4.130;2023-06-10T00:47:20;17.98;;;7.63;;
49764;SDS011;35657;51.204;-4.130;2023-06-10T00:49:47;14.02;;;7.13;;
49764;SDS011;35657;51.204;-4.130;2023-06-10T00:52:14;18.30;;;8.85;;
49764;SDS011;35657;51.204;-4.130;2023-06-10T00:54:41;16.90;;;8.32;;
49764;SDS011;35657;51.204;-4.130;2023-06-10T00:57:07;20.70;;;8.13;;
49764;SDS011;35657;51.204;-4.130;2023-06-10T00:59:33;17.13;;;7.82;;
49764;SDS011;35657;51.204;-4.130;2023-06-10T01:01:59;16.98;;;9.55;;
49764;SDS011;35657;51.204;-4.130;2023-06-10T01:04:27;13.77;;;8.18;;
49764;SDS011;35657;51.204;-4.130;2023-06-10T01:14:55;18.60;;;8.07;;
49764;SDS011;35657;51.204;-4.130;2023-06-10T01:17:21;16.73;;;8.10;;
49764;SDS011;35657;51.204;-4.130;2023-06-10T01:19:53;14.60;;;8.27;;
49764;SDS011;35657;51.204;-4.130;2023-06-10T01:22:20;16.23;;;6.88;;
49764;SDS011;35657;51.204;-4.130;2023-06-10T01:24:48;17.88;;;10.05;;
49764;SDS011;35657;51.204;-4.130;2023-06-10T01:27:15;21.10;;;9.02;;
49764;SDS011;35657;51.204;-4.130;2023-06-10T01:29:49;15.52;;;9.32;;
49764;SDS011;35657;51.204;-4.130;2023-06-10T01:32:26;19.60;;;9.35;;
49764;SDS011;35657;51.204;-4.130;2023-06-10T01:35:02;15.93;;;9.00;;
49764;SDS011;35657;51.204;-4.130;2023-06-10T01:37:30;12.00;;;8.65;;
49764;SDS011;35657;51.204;-4.130;2023-06-10T01:39:57;16.08;;;8.88;;
49764;SDS011;35657;51.204;-4.130;2023-06-10T01:42:24;19.05;;;8.25;;
49764;SDS011;35657;51.204;-4.130;2023-06-10T01:44:51;13.60;;;6.50;;
49764;SDS011;35657;51.204;-4.130;2023-06-10T01:47:17;16.55;;;9.20;;
49764;SDS011;35657;51.204;-4.130;2023-06-10T01:49:43;15.75;;;7.82;;
49764;SDS011;35657;51.204;-4.130;2023-06-10T01:52:08;17.48;;;9.57;;
49764;SDS011;35657;51.204;-4.130;2023-06-10T01:54:34;17.05;;;8.20;;
49764;SDS011;35657;51.204;-4.130;2023-06-10T01:57:01;20.25;;;10.23;;
49764;SDS011;35657;51.204;-4.130;2023-06-10T01:59:27;21.30;;;9.82;;
49764;SDS011;35657;51.204;-4.130;2023-06-10T02:01:52;17.52;;;9.73;;
49764;SDS011;35657;51.204;-4.130;2023-06-10T02:04:18;14.30;;;7.97;;
49764;SDS011;35657;51.204;-4.130;2023-06-10T02:06:44;16.50;;;8.75;;
49764;SDS011;35657;51.204;-4.130;2023-06-10T02:09:10;16.38;;;7.95;;
49764;SDS011;35657;51.204;-4.130;2023-06-10T02:11:36;17.25;;;7.93;;
49764;SDS011;35657;51.204;-4.130;2023-06-10T02:14:02;15.30;;;8.07;;
49764;SDS011;35657;51.204;-4.130;2023-06-10T02:16:27;14.63;;;8.95;;
49764;SDS011;35657;51.204;-4.130;2023-06-10T02:18:53;19.35;;;8.32;;
49764;SDS011;35657;51.204;-4.130;2023-06-10T02:21:19;15.63;;;8.25;;
49764;SDS011;35657;51.204;-4.130;2023-06-10T02:23:45;18.83;;;8.98;;
49764;SDS011;35657;51.204;-4.130;2023-06-10T02:26:11;15.77;;;8.35;;
49764;SDS011;35657;51.204;-4.130;2023-06-10T02:28:36;28.67;;;9.63;;
49764;SDS011;35657;51.204;-4.130;2023-06-10T02:31:02;21.00;;;9.25;;
49764;SDS011;35657;51.204;-4.130;2023-06-10T02:33:28;22.30;;;9.38;;
49764;SDS011;35657;51.204;-4.130;2023-06-10T02:35:54;17.65;;;9.48;;
49764;SDS011;35657;51.204;-4.130;2023-06-10T02:38:20;19.27;;;9.65;;
49764;SDS011;35657;51.204;-4.130;2023-06-10T02:40:46;16.90;;;9.02;;
49764;SDS011;35657;51.204;-4.130;2023-06-10T02:43:12;18.23;;;8.98;;
49764;SDS011;35657;51.204;-4.130;2023-06-10T02:45:37;16.45;;;10.00;;
49764;SDS011;35657;51.204;-4.130;2023-06-10T02:48:03;16.38;;;9.48;;
49764;SDS011;35657;51.204;-4.130;2023-06-10T02:50:29;17.52;;;9.75;;
49764;SDS011;35657;51.204;-4.130;2023-06-10T02:52:54;21.25;;;9.70;;
49764;SDS011;35657;51.204;-4.130;2023-06-10T02:55:20;14.15;;;8.05;;
49764;SDS011;35657;51.204;-4.130;2023-06-10T02:57:46;27.05;;;9.55;;
49764;SDS011;35657;51.204;-4.130;2023-06-10T03:00:12;17.10;;;9.30;;
49764;SDS011;35657;51.204;-4.130;2023-06-10T03:02:39;17.92;;;10.00;;
49764;SDS011;35657;51.204;-4.130;2023-06-10T03:05:05;19.77;;;9.25;;
49764;SDS011;35657;51.204;-4.130;2023-06-10T03:07:35;18.67;;;9.75;;
49764;SDS011;35657;51.204;-4.130;2023-06-10T03:10:01;20.70;;;11.13;;
49764;SDS011;35657;51.204;-4.130;2023-06-10T03:12:27;18.75;;;9.60;;
49764;SDS011;35657;51.204;-4.130;2023-06-10T03:14:52;16.27;;;8.63;;
49764;SDS011;35657;51.204;-4.130;2023-06-10T03:17:18;16.13;;;9.52;;
49764;SDS011;35657;51.204;-4.130;2023-06-10T03:19:45;28.52;;;9.50;;
49764;SDS011;35657;51.204;-4.130;2023-06-10T03:22:12;14.73;;;8.18;;
49764;SDS011;35657;51.204;-4.130;2023-06-10T03:24:39;16.77;;;8.20;;
49764;SDS011;35657;51.204;-4.130;2023-06-10T03:27:08;13.77;;;8.60;;
49764;SDS011;35657;51.204;-4.130;2023-06-10T03:29:36;20.40;;;8.27;;
49764;SDS011;35657;51.204;-4.130;2023-06-10T03:32:02;19.80;;;10.00;;
49764;SDS011;35657;51.204;-4.130;2023-06-10T03:34:28;19.10;;;9.85;;
49764;SDS011;35657;51.204;-4.130;2023-06-10T03:36:58;16.05;;;8.77;;
49764;SDS011;35657;51.204;-4.130;2023-06-10T03:39:25;23.75;;;9.65;;
49764;SDS011;35657;51.204;-4.130;2023-06-10T03:41:53;15.82;;;8.80;;
49764;SDS011;35657;51.204;-4.130;2023-06-10T03:44:20;15.52;;;9.82;;
49764;SDS011;35657;51.204;-4.130;2023-06-10T03:46:46;18.15;;;9.63;;
49764;SDS011;35657;51.204;-4.130;2023-06-10T03:49:12;19.30;;;9.63;;
49764;SDS011;35657;51.204;-4.130;2023-06-10T03:51:40;15.77;;;8.70;;
49764;SDS011;35657;51.204;-4.130;2023-06-10T03:54:05;14.82;;;9.38;;
49764;SDS011;35657;51.204;-4.130;2023-06-10T03:56:31;19.20;;;9.25;;
49764;SDS011;35657;51.204;-4.130;2023-06-10T03:58:57;20.67;;;10.88;;
49764;SDS011;35657;51.204;-4.130;2023-06-10T04:01:24;20.92;;;10.25;;
49764;SDS011;35657;51.204;-4.130;2023-06-10T04:03:49;17.42;;;9.40;;
49764;SDS011;35657;51.204;-4.130;2023-06-10T04:06:16;18.60;;;10.05;;
49764;SDS011;35657;51.204;-4.130;2023-06-10T04:08:42;15.45;;;9.27;;
49764;SDS011;35657;51.204;-4.130;2023-06-10T04:11:08;18.25;;;9.23;;
49764;SDS011;35657;51.204;-4.130;2023-06-10T04:13:34;18.45;;;9.55;;
49764;SDS011;35657;51.204;-4.130;2023-06-10T04:16:00;17.92;;;10.07;;
49764;SDS011;35657;51.204;-4.130;2023-06-10T04:18:25;21.15;;;10.63;;
49764;SDS011;35657;51.204;-4.130;2023-06-10T04:20:51;23.77;;;12.15;;
49764;SDS011;35657;51.204;-4.130;2023-06-10T04:23:17;20.75;;;11.10;;
49764;SDS011;35657;51.204;-4.130;2023-06-10T04:25:43;19.50;;;10.73;;
49764;SDS011;35657;51.204;-4.130;2023-06-10T04:28:09;17.75;;;10.15;;
49764;SDS011;35657;51.204;-4.130;2023-06-10T04:30:34;20.50;;;12.15;;
49764;SDS011;35657;51.204;-4.130;2023-06-10T04:33:00;16.38;;;10.48;;
49764;SDS011;35657;51.204;-4.130;2023-06-10T04:35:26;22.33;;;9.68;;
49764;SDS011;35657;51.204;-4.130;2023-06-10T04:37:52;21.38;;;10.77;;
49764;SDS011;35657;51.204;-4.130;2023-06-10T04:40:19;23.08;;;10.70;;
49764;SDS011;35657;51.204;-4.130;2023-06-10T04:42:44;18.45;;;9.45;;
49764;SDS011;35657;51.204;-4.130;2023-06-10T04:45:10;22.58;;;10.90;;
49764;SDS011;35657;51.204;-4.130;2023-06-10T04:47:36;17.38;;;11.60;;
49764;SDS011;35657;51.204;-4.130;2023-06-10T04:50:02;18.23;;;12.30;;
49764;SDS011;35657;51.204;-4.130;2023-06-10T04:52:29;17.08;;;10.40;;
49764;SDS011;35657;51.204;-4.130;2023-06-10T04:54:55;16.38;;;9.25;;
49764;SDS011;35657;51.204;-4.130;2023-06-10T04:57:23;18.42;;;10.48;;
49764;SDS011;35657;51.204;-4.130;2023-06-10T04:59:49;19.58;;;11.02;;
49764;SDS011;35657;51.204;-4.130;2023-06-10T05:02:14;16.95;;;10.10;;
49764;SDS011;35657;51.204;-4.130;2023-06-10T05:04:40;15.65;;;9.85;;
49764;SDS011;35657;51.204;-4.130;2023-06-10T05:07:06;18.02;;;10.52;;
49764;SDS011;35657;51.204;-4.130;2023-06-10T05:09:32;21.15;;;10.48;;
49764;SDS011;35657;51.204;-4.130;2023-06-10T05:11:58;20.08;;;11.30;;
49764;SDS011;35657;51.204;-4.130;2023-06-10T05:14:24;16.90;;;9.18;;
49764;SDS011;35657;51.204;-4.130;2023-06-10T05:16:49;18.05;;;9.88;;
49764;SDS011;35657;51.204;-4.130;2023-06-10T05:19:15;20.58;;;10.38;;
49764;SDS011;35657;51.204;-4.130;2023-06-10T05:21:41;20.33;;;9.98;;
49764;SDS011;35657;51.204;-4.130;2023-06-10T05:24:07;17.63;;;9.07;;
49764;SDS011;35657;51.204;-4.130;2023-06-10T05:26:33;17.77;;;8.50;;
49764;SDS011;35657;51.204;-4.130;2023-06-10T05:29:02;20.40;;;11.35;;
49764;SDS011;35657;51.204;-4.130;2023-06-10T05:31:29;22.55;;;9.60;;
49764;SDS011;35657;51.204;-4.130;2023-06-10T05:33:55;16.90;;;9.20;;
49764;SDS011;35657;51.204;-4.130;2023-06-10T05:36:20;22.38;;;12.00;;
49764;SDS011;35657;51.204;-4.130;2023-06-10T05:38:46;18.52;;;11.63;;
49764;SDS011;35657;51.204;-4.130;2023-06-10T05:41:12;19.58;;;9.73;;
49764;SDS011;35657;51.204;-4.130;2023-06-10T05:43:38;23.42;;;10.05;;
49764;SDS011;35657;51.204;-4.130;2023-06-10T05:46:04;23.65;;;11.55;;
49764;SDS011;35657;51.204;-4.130;2023-06-10T05:48:29;19.05;;;10.15;;
49764;SDS011;35657;51.204;-4.130;2023-06-10T05:50:55;26.48;;;12.95;;
49764;SDS011;35657;51.204;-4.130;2023-06-10T05:53:21;21.73;;;13.18;;
49764;SDS011;35657;51.204;-4.130;2023-06-10T05:55:47;22.45;;;12.90;;
49764;SDS011;35657;51.204;-4.130;2023-06-10T05:58:13;23.30;;;11.93;;
49764;SDS011;35657;51.204;-4.130;2023-06-10T06:00:39;22.35;;;14.25;;
49764;SDS011;35657;51.204;-4.130;2023-06-10T06:03:06;23.15;;;11.48;;
49764;SDS011;35657;51.204;-4.130;2023-06-10T06:05:33;21.15;;;11.82;;
49764;SDS011;35657;51.204;-4.130;2023-06-10T06:08:03;18.33;;;12.45;;
49764;SDS011;35657;51.204;-4.130;2023-06-10T06:10:30;21.52;;;11.48;;
49764;SDS011;35657;51.204;-4.130;2023-06-10T06:12:56;23.58;;;12.20;;
49764;SDS011;35657;51.204;-4.130;2023-06-10T06:15:22;28.77;;;12.15;;
49764;SDS011;35657;51.204;-4.130;2023-06-10T06:17:48;17.25;;;11.32;;
49764;SDS011;35657;51.204;-4.130;2023-06-10T06:20:13;23.00;;;11.63;;
49764;SDS011;35657;51.204;-4.130;2023-06-10T06:22:39;24.02;;;12.57;;
49764;SDS011;35657;51.204;-4.130;2023-06-10T06:25:05;23.77;;;11.68;;
49764;SDS011;35657;51.204;-4.130;2023-06-10T06:27:31;24.33;;;11.60;;
49764;SDS011;35657;51.204;-4.130;2023-06-10T06:29:57;22.20;;;11.35;;
49764;SDS011;35657;51.204;-4.130;2023-06-10T06:32:22;26.58;;;12.32;;
49764;SDS011;35657;51.204;-4.130;2023-06-10T06:34:51;21.80;;;12.32;;
49764;SDS011;35657;51.204;-4.130;2023-06-10T06:37:20;28.65;;;13.75;;
49764;SDS011;35657;51.204;-4.130;2023-06-10T06:39:47;19.65;;;11.13;;
49764;SDS011;35657;51.204;-4.130;2023-06-10T06:42:13;17.38;;;11.05;;
49764;SDS011;35657;51.204;-4.130;2023-06-10T06:44:38;18.10;;;10.73;;
49764;SDS011;35657;51.204;-4.130;2023-06-10T06:47:04;18.23;;;11.25;;
49764;SDS011;35657;51.204;-4.130;2023-06-10T06:49:30;25.23;;;11.93;;
49764;SDS011;35657;51.204;-4.130;2023-06-10T06:51:56;20.08;;;12.57;;
49764;SDS011;35657;51.204;-4.130;2023-06-10T06:54:21;22.40;;;11.43;;
49764;SDS011;35657;51.204;-4.130;2023-06-10T06:56:47;22.75;;;12.98;;
49764;SDS011;35657;51.204;-4.130;2023-06-10T06:59:13;20.38;;;11.73;;
49764;SDS011;35657;51.204;-4.130;2023-06-10T07:01:39;23.50;;;12.63;;
49764;SDS011;35657;51.204;-4.130;2023-06-10T07:04:04;20.90;;;11.75;;
49764;SDS011;35657;51.204;-4.130;2023-06-10T07:06:30;21.33;;;13.15;;
49764;SDS011;35657;51.204;-4.130;2023-06-10T07:08:56;22.30;;;12.50;;
49764;SDS011;35657;51.204;-4.130;2023-06-10T07:11:23;25.60;;;12.23;;
49764;SDS011;35657;51.204;-4.130;2023-06-10T07:13:48;22.65;;;11.88;;
49764;SDS011;35657;51.204;-4.130;2023-06-10T07:16:14;25.88;;;12.68;;
49764;SDS011;35657;51.204;-4.130;2023-06-10T07:18:40;22.40;;;13.00;;
49764;SDS011;35657;51.204;-4.130;2023-06-10T07:21:05;20.67;;;12.65;;
49764;SDS011;35657;51.204;-4.130;2023-06-10T07:23:31;23.17;;;12.40;;
49764;SDS011;35657;51.204;-4.130;2023-06-10T07:25:57;23.63;;;11.23;;
49764;SDS011;35657;51.204;-4.130;2023-06-10T07:28:22;21.80;;;11.85;;
49764;SDS011;35657;51.204;-4.130;2023-06-10T07:30:48;19.38;;;10.65;;
49764;SDS011;35657;51.204;-4.130;2023-06-10T07:33:14;25.08;;;12.38;;
49764;SDS011;35657;51.204;-4.130;2023-06-10T07:35:40;25.85;;;12.82;;
49764;SDS011;35657;51.204;-4.130;2023-06-10T07:38:08;22.55;;;10.75;;
49764;SDS011;35657;51.204;-4.130;2023-06-10T07:40:33;20.55;;;10.93;;
49764;SDS011;35657;51.204;-4.130;2023-06-10T07:42:59;25.40;;;12.70;;
49764;SDS011;35657;51.204;-4.130;2023-06-10T07:45:25;21.00;;;11.75;;
49764;SDS011;35657;51.204;-4.130;2023-06-10T07:47:51;22.17;;;12.43;;
49764;SDS011;35657;51.204;-4.130;2023-06-10T07:50:17;23.58;;;12.52;;
49764;SDS011;35657;51.204;-4.130;2023-06-10T07:52:42;26.42;;;12.20;;
49764;SDS011;35657;51.204;-4.130;2023-06-10T07:55:08;19.80;;;11.43;;
49764;SDS011;35657;51.204;-4.130;2023-06-10T07:57:34;18.65;;;11.00;;
49764;SDS011;35657;51.204;-4.130;2023-06-10T08:00:02;23.60;;;11.85;;
49764;SDS011;35657;51.204;-4.130;2023-06-10T08:02:29;24.75;;;12.43;;
49764;SDS011;35657;51.204;-4.130;2023-06-10T08:04:55;33.80;;;12.93;;
49764;SDS011;35657;51.204;-4.130;2023-06-10T08:07:21;21.63;;;12.32;;
49764;SDS011;35657;51.204;-4.130;2023-06-10T08:09:47;21.00;;;11.80;;
49764;SDS011;35657;51.204;-4.130;2023-06-10T08:12:12;23.65;;;12.43;;
49764;SDS011;35657;51.204;-4.130;2023-06-10T08:14:39;24.95;;;13.13;;
49764;SDS011;35657;51.204;-4.130;2023-06-10T08:17:04;23.63;;;13.50;;
49764;SDS011;35657;51.204;-4.130;2023-06-10T08:19:31;18.63;;;11.15;;
49764;SDS011;35657;51.204;-4.130;2023-06-10T08:21:57;23.25;;;11.43;;
49764;SDS011;35657;51.204;-4.130;2023-06-10T08:24:23;26.35;;;12.23;;
49764;SDS011;35657;51.204;-4.130;2023-06-10T08:26:48;24.45;;;12.23;;
49764;SDS011;35657;51.204;-4.130;2023-06-10T08:29:14;24.15;;;13.80;;
49764;SDS011;35657;51.204;-4.130;2023-06-10T08:31:43;29.08;;;12.65;;
49764;SDS011;35657;51.204;-4.130;2023-06-10T08:34:09;23.10;;;12.90;;
49764;SDS011;35657;51.204;-4.130;2023-06-10T08:36:35;28.45;;;12.85;;
49764;SDS011;35657;51.204;-4.130;2023-06-10T08:39:01;23.05;;;12.40;;
49764;SDS011;35657;51.204;-4.130;2023-06-10T08:41:28;30.98;;;14.05;;
49764;SDS011;35657;51.204;-4.130;2023-06-10T08:44:08;26.02;;;13.13;;
49764;SDS011;35657;51.204;-4.130;2023-06-10T08:46:43;25.45;;;13.88;;
49764;SDS011;35657;51.204;-4.130;2023-06-10T08:49:10;30.50;;;13.32;;
49764;SDS011;35657;51.204;-4.130;2023-06-10T08:51:43;22.67;;;12.70;;
49764;SDS011;35657;51.204;-4.130;2023-06-10T08:54:20;27.05;;;12.63;;
49764;SDS011;35657;51.204;-4.130;2023-06-10T08:56:49;27.00;;;12.63;;
49764;SDS011;35657;51.204;-4.130;2023-06-10T08:59:16;22.92;;;11.90;;
49764;SDS011;35657;51.204;-4.130;2023-06-10T09:01:43;28.13;;;14.30;;
49764;SDS011;35657;51.204;-4.130;2023-06-10T09:04:10;26.63;;;13.70;;
49764;SDS011;35657;51.204;-4.130;2023-06-10T09:06:37;25.23;;;12.73;;
49764;SDS011;35657;51.204;-4.130;2023-06-10T09:09:05;26.17;;;13.60;;
49764;SDS011;35657;51.204;-4.130;2023-06-10T09:11:32;30.05;;;13.15;;
49764;SDS011;35657;51.204;-4.130;2023-06-10T09:13:58;22.25;;;12.77;;
49764;SDS011;35657;51.204;-4.130;2023-06-10T09:16:24;29.98;;;14.57;;
49764;SDS011;35657;51.204;-4.130;2023-06-10T09:18:50;21.85;;;12.38;;
49764;SDS011;35657;51.204;-4.130;2023-06-10T09:21:22;26.00;;;13.55;;
49764;SDS011;35657;51.204;-4.130;2023-06-10T09:23:49;25.50;;;13.75;;
49764;SDS011;35657;51.204;-4.130;2023-06-10T09:26:15;24.98;;;12.18;;
49764;SDS011;35657;51.204;-4.130;2023-06-10T09:28:44;24.85;;;12.38;;
49764;SDS011;35657;51.204;-4.130;2023-06-10T09:31:13;28.05;;;12.60;;
49764;SDS011;35657;51.204;-4.130;2023-06-10T09:33:39;19.23;;;12.30;;
49764;SDS011;35657;51.204;-4.130;2023-06-10T09:36:05;22.15;;;12.02;;
49764;SDS011;35657;51.204;-4.130;2023-06-10T09:38:32;21.35;;;11.98;;
49764;SDS011;35657;51.204;-4.130;2023-06-10T09:40:58;32.80;;;15.00;;
49764;SDS011;35657;51.204;-4.130;2023-06-10T09:43:45;27.35;;;12.85;;
49764;SDS011;35657;51.204;-4.130;2023-06-10T09:46:17;27.65;;;12.20;;
49764;SDS011;35657;51.204;-4.130;2023-06-10T09:48:45;27.63;;;12.18;;
49764;SDS011;35657;51.204;-4.130;2023-06-10T09:51:12;32.67;;;13.70;;
49764;SDS011;35657;51.204;-4.130;2023-06-10T09:53:38;25.08;;;12.68;;
49764;SDS011;35657;51.204;-4.130;2023-06-10T09:56:04;22.13;;;11.75;;
49764;SDS011;35657;51.204;-4.130;2023-06-10T09:58:49;30.52;;;13.85;;
49764;SDS011;35657;51.204;-4.130;2023-06-10T10:01:18;24.15;;;11.70;;
49764;SDS011;35657;51.204;-4.130;2023-06-10T10:03:48;26.10;;;12.98;;
49764;SDS011;35657;51.204;-4.130;2023-06-10T10:06:15;22.83;;;12.27;;
49764;SDS011;35657;51.204;-4.130;2023-06-10T10:08:42;24.10;;;13.13;;
49764;SDS011;35657;51.204;-4.130;2023-06-10T10:11:09;23.45;;;12.60;;
49764;SDS011;35657;51.204;-4.130;2023-06-10T10:13:35;26.63;;;13.20;;
49764;SDS011;35657;51.204;-4.130;2023-06-10T10:16:21;24.77;;;13.35;;
49764;SDS011;35657;51.204;-4.130;2023-06-10T10:18:55;25.38;;;12.07;;
49764;SDS011;35657;51.204;-4.130;2023-06-10T10:21:29;29.42;;;12.38;;
49764;SDS011;35657;51.204;-4.130;2023-06-10T10:26:30;21.48;;;12.45;;
49764;SDS011;35657;51.204;-4.130;2023-06-10T10:31:39;33.72;;;13.18;;
49764;SDS011;35657;51.204;-4.130;2023-06-10T10:34:15;21.13;;;12.52;;
49764;SDS011;35657;51.204;-4.130;2023-06-10T10:36:44;21.98;;;11.85;;
49764;SDS011;35657;51.204;-4.130;2023-06-10T10:39:11;24.23;;;12.45;;
49764;SDS011;35657;51.204;-4.130;2023-06-10T10:41:37;29.83;;;13.15;;
49764;SDS011;35657;51.204;-4.130;2023-06-10T10:44:05;19.30;;;12.05;;
49764;SDS011;35657;51.204;-4.130;2023-06-10T10:46:54;30.48;;;13.68;;
49764;SDS011;35657;51.204;-4.130;2023-06-10T10:49:19;26.60;;;12.63;;
49764;SDS011;35657;51.204;-4.130;2023-06-10T10:51:56;30.80;;;13.98;;
49764;SDS011;35657;51.204;-4.130;2023-06-10T10:54:30;25.67;;;13.80;;
49764;SDS011;35657;51.204;-4.130;2023-06-10T10:57:14;26.67;;;13.73;;
49764;SDS011;35657;51.204;-4.130;2023-06-10T11:02:35;32.08;;;16.67;;
49764;SDS011;35657;51.204;-4.130;2023-06-10T11:05:07;135.60;;;65.65;;
49764;SDS011;35657;51.204;-4.130;2023-06-10T11:07:35;112.97;;;51.63;;
49764;SDS011;35657;51.204;-4.130;2023-06-10T11:10:11;31.65;;;15.63;;
49764;SDS011;35657;51.204;-4.130;2023-06-10T11:12:41;31.48;;;14.82;;
49764;SDS011;35657;51.204;-4.130;2023-06-10T11:15:07;23.10;;;14.27;;
49764;SDS011;35657;51.204;-4.130;2023-06-10T11:17:33;40.10;;;20.60;;
49764;SDS011;35657;51.204;-4.130;2023-06-10T11:19:59;53.28;;;34.25;;
49764;SDS011;35657;51.204;-4.130;2023-06-10T11:22:25;86.40;;;55.78;;
49764;SDS011;35657;51.204;-4.130;2023-06-10T11:24:50;67.28;;;46.67;;
49764;SDS011;35657;51.204;-4.130;2023-06-10T11:27:17;55.47;;;36.22;;
49764;SDS011;35657;51.204;-4.130;2023-06-10T11:32:32;30.13;;;16.75;;
49764;SDS011;35657;51.204;-4.130;2023-06-10T11:34:58;34.10;;;17.35;;
49764;SDS011;35657;51.204;-4.130;2023-06-10T11:37:25;25.35;;;15.45;;
49764;SDS011;35657;51.204;-4.130;2023-06-10T11:39:51;47.33;;;14.80;;
49764;SDS011;35657;51.204;-4.130;2023-06-10T11:42:18;34.75;;;18.27;;
49764;SDS011;35657;51.204;-4.130;2023-06-10T11:44:48;30.27;;;17.55;;
49764;SDS011;35657;51.204;-4.130;2023-06-10T11:47:17;34.17;;;16.65;;
49764;SDS011;35657;51.204;-4.130;2023-06-10T11:49:44;25.55;;;15.40;;
49764;SDS011;35657;51.204;-4.130;2023-06-10T11:52:11;31.17;;;15.10;;
49764;SDS011;35657;51.204;-4.130;2023-06-10T11:54:37;27.50;;;14.40;;
49764;SDS011;35657;51.204;-4.130;2023-06-10T11:57:03;28.10;;;14.98;;
49764;SDS011;35657;51.204;-4.130;2023-06-10T11:59:29;31.02;;;16.33;;
49764;SDS011;35657;51.204;-4.130;2023-06-10T12:01:55;30.75;;;15.18;;
49764;SDS011;35657;51.204;-4.130;2023-06-10T12:04:21;29.02;;;17.35;;
49764;SDS011;35657;51.204;-4.130;2023-06-10T12:06:51;30.08;;;15.05;;
49764;SDS011;35657;51.204;-4.130;2023-06-10T12:09:28;32.05;;;15.80;;
49764;SDS011;35657;51.204;-4.130;2023-06-10T12:19:56;38.40;;;19.40;;
49764;SDS011;35657;51.204;-4.130;2023-06-10T12:22:22;30.70;;;17.13;;
49764;SDS011;35657;51.204;-4.130;2023-06-10T12:24:59;31.45;;;16.33;;
49764;SDS011;35657;51.204;-4.130;2023-06-10T12:27:27;21.45;;;14.35;;
49764;SDS011;35657;51.204;-4.130;2023-06-10T12:29:57;27.55;;;15.02;;
49764;SDS011;35657;51.204;-4.130;2023-06-10T12:32:38;27.00;;;15.52;;
49764;SDS011;35657;51.204;-4.130;2023-06-10T12:35:08;26.83;;;14.05;;
49764;SDS011;35657;51.204;-4.130;2023-06-10T12:37:35;27.02;;;14.32;;
49764;SDS011;35657;51.204;-4.130;2023-06-10T12:40:02;29.85;;;15.82;;
49764;SDS011;35657;51.204;-4.130;2023-06-10T12:42:29;29.65;;;15.80;;
49764;SDS011;35657;51.204;-4.130;2023-06-10T12:44:56;42.67;;;16.98;;
49764;SDS011;35657;51.204;-4.130;2023-06-10T12:47:32;26.30;;;14.95;;
49764;SDS011;35657;51.204;-4.130;2023-06-10T12:50:02;32.13;;;14.95;;
49764;SDS011;35657;51.204;-4.130;2023-06-10T12:52:28;26.92;;;15.27;;
49764;SDS011;35657;51.204;-4.130;2023-06-10T12:54:54;29.10;;;14.70;;
49764;SDS011;35657;51.204;-4.130;2023-06-10T12:57:23;25.85;;;14.55;;
49764;SDS011;35657;51.204;-4.130;2023-06-10T12:59:48;28.75;;;14.85;;
49764;SDS011;35657;51.204;-4.130;2023-06-10T13:02:20;32.97;;;14.80;;
49764;SDS011;35657;51.204;-4.130;2023-06-10T13:04:49;27.52;;;14.93;;
49764;SDS011;35657;51.204;-4.130;2023-06-10T13:07:17;31.67;;;16.52;;
49764;SDS011;35657;51.204;-4.130;2023-06-10T13:09:43;29.02;;;16.10;;
49764;SDS011;35657;51.204;-4.130;2023-06-10T13:12:09;26.85;;;14.85;;
49764;SDS011;35657;51.204;-4.130;2023-06-10T13:14:35;28.67;;;15.55;;
49764;SDS011;35657;51.204;-4.130;2023-06-10T13:17:03;34.30;;;17.48;;
49764;SDS011;35657;51.204;-4.130;2023-06-10T13:19:31;31.38;;;15.18;;
49764;SDS011;35657;51.204;-4.130;2023-06-10T13:21:57;28.98;;;15.30;;
49764;SDS011;35657;51.204;-4.130;2023-06-10T13:24:23;26.85;;;15.10;;
49764;SDS011;35657;51.204;-4.130;2023-06-10T13:26:49;28.10;;;14.98;;
49764;SDS011;35657;51.204;-4.130;2023-06-10T13:29:14;22.33;;;14.02;;
49764;SDS011;35657;51.204;-4.130;2023-06-10T13:31:40;29.08;;;15.40;;
49764;SDS011;35657;51.204;-4.130;2023-06-10T13:34:07;29.48;;;15.60;;
49764;SDS011;35657;51.204;-4.130;2023-06-10T13:36:33;25.63;;;14.93;;
49764;SDS011;35657;51.204;-4.130;2023-06-10T13:38:58;21.08;;;12.65;;
49764;SDS011;35657;51.204;-4.130;2023-06-10T13:41:24;26.23;;;13.63;;
49764;SDS011;35657;51.204;-4.130;2023-06-10T13:43:53;29.75;;;14.50;;
49764;SDS011;35657;51.204;-4.130;2023-06-10T13:46:19;19.83;;;13.07;;
49764;SDS011;35657;51.204;-4.130;2023-06-10T13:48:46;20.77;;;13.48;;
49764;SDS011;35657;51.204;-4.130;2023-06-10T13:51:12;26.80;;;13.80;;
49764;SDS011;35657;51.204;-4.130;2023-06-10T13:53:38;28.25;;;14.80;;
49764;SDS011;35657;51.204;-4.130;2023-06-10T13:56:04;19.45;;;11.93;;
49764;SDS011;35657;51.204;-4.130;2023-06-10T13:58:30;26.83;;;14.00;;
49764;SDS011;35657;51.204;-4.130;2023-06-10T14:00:56;22.50;;;12.50;;
49764;SDS011;35657;51.204;-4.130;2023-06-10T14:03:23;26.40;;;13.68;;
49764;SDS011;35657;51.204;-4.130;2023-06-10T14:05:49;24.27;;;14.45;;
49764;SDS011;35657;51.204;-4.130;2023-06-10T14:08:15;26.45;;;14.15;;
49764;SDS011;35657;51.204;-4.130;2023-06-10T14:10:41;20.48;;;12.50;;
49764;SDS011;35657;51.204;-4.130;2023-06-10T14:13:07;24.38;;;14.90;;
49764;SDS011;35657;51.204;-4.130;2023-06-10T14:15:33;26.10;;;14.98;;
49764;SDS011;35657;51.204;-4.130;2023-06-10T14:17:58;29.80;;;15.45;;
49764;SDS011;35657;51.204;-4.130;2023-06-10T14:20:24;24.63;;;15.65;;
49764;SDS011;35657;51.204;-4.130;2023-06-10T14:22:51;29.65;;;16.10;;
49764;SDS011;35657;51.204;-4.130;2023-06-10T14:25:17;26.13;;;16.08;;
49764;SDS011;35657;51.204;-4.130;2023-06-10T14:27:43;30.67;;;17.00;;
49764;SDS011;35657;51.204;-4.130;2023-06-10T14:30:08;25.48;;;16.15;;
49764;SDS011;35657;51.204;-4.130;2023-06-10T14:32:34;21.88;;;15.85;;
49764;SDS011;35657;51.204;-4.130;2023-06-10T14:35:00;23.83;;;15.40;;
49764;SDS011;35657;51.204;-4.130;2023-06-10T14:37:26;28.98;;;16.08;;
49764;SDS011;35657;51.204;-4.130;2023-06-10T14:39:52;24.85;;;14.77;;